Αρχική σελίδα
METAR-TAF:

METAR-TAF

Αεροδρόμια :

Hollister, Καλιφόρνια, Ηνωμένες Πολιτείες Αμερικής

γεωγραφικό πλάτος: 36-53-36N, γεωγραφικό μήκος: 121-24-37W, υψόμετρο: 70 μ

Παρών καιρός

Η αναφορά έγινε 22 λεπτά πριν, στις 18:35 UTC
Ήπιος άνεμος
Θερμοκρασία 10°C
Υγρασία 71%
Πίεση 1019 hPa
Ορατότητα: 4.8 χλμ
Καθαρός ουρανός
καταχνιά

METAR: KCVH 181835Z AUTO 00000KT 3SM HZ CLR 10/05 A3009 RMK A01

Χρόνος: 10:57 (18:57 UTC)


TAF: λείπει

Μετεωρολογικές αναφορές και προγνώσεις για περισσότερα από 4000 αεροδρόμια (δελτία METAR και TAF).

Οι διαθέσιμοι σταθμοί απεικονίζονται στο χάρτη με κίτρινες και κόκκινες κουκκίδες.

Μετακινήστε το ποντίκι πάνω από τις κουκκίδες για να δείτε το όνομα του σταθμού.

Στη συνέχεια, κάντε κλικ για να δείτε τις μετεωρολογικές αναφορές και τις προγνώσεις καιρού.

Για να αλλάξετε το χάρτη: κάντε κλικ στα πράσινα κουμπιά με τον μαύρο σταυρό για να ζουμάρετε, στο πράσινο κουμπί με την παύλα για να αφαιρέσετε το ζουμ ή στα πράσινα βέλη για να αντιπαραβάλλετε χάρτες.


METAR-TAF: